createdAt,value
2023-01-19T00:02:04.295Z,40.63
2023-01-19T00:04:37.047Z,41.42
2023-01-19T00:07:09.569Z,40.03
2023-01-19T00:09:42.448Z,37.53
2023-01-19T00:12:14.907Z,37.45
2023-01-19T00:14:47.901Z,34.70
2023-01-19T00:17:20.409Z,42.67
2023-01-19T00:19:53.263Z,47.55
2023-01-19T00:22:25.828Z,46.13
2023-01-19T00:24:58.561Z,41.75
2023-01-19T00:27:34.997Z,44.80
2023-01-19T00:30:08.562Z,42.60
2023-01-19T00:32:41.109Z,37.03
2023-01-19T00:35:13.969Z,43.15
2023-01-19T00:37:46.443Z,45.92
2023-01-19T00:40:19.626Z,44.45
2023-01-19T00:42:52.105Z,42.40
2023-01-19T00:45:25.162Z,45.13
2023-01-19T00:47:57.693Z,51.17
2023-01-19T00:50:32.476Z,49.70
2023-01-19T00:53:05.012Z,41.38
2023-01-19T00:55:37.865Z,40.03
2023-01-19T00:58:10.953Z,40.05
2023-01-19T01:00:44.830Z,42.17
2023-01-19T01:03:17.370Z,43.35
2023-01-19T01:05:50.145Z,43.50
2023-01-19T01:08:22.652Z,35.92
2023-01-19T01:10:55.994Z,41.58
2023-01-19T01:13:28.840Z,38.80
2023-01-19T01:16:02.016Z,40.00
2023-01-19T01:18:34.478Z,45.08
2023-01-19T01:21:07.966Z,40.22
2023-01-19T01:23:40.445Z,43.05
2023-01-19T01:26:13.209Z,45.33
2023-01-19T01:28:45.752Z,41.60
2023-01-19T01:31:18.615Z,38.40
2023-01-19T01:33:51.089Z,48.30
2023-01-19T01:36:24.122Z,51.20
2023-01-19T01:38:56.589Z,49.42
2023-01-19T01:41:30.050Z,48.28
2023-01-19T01:44:06.302Z,41.78
2023-01-19T01:46:39.035Z,44.72
2023-01-19T01:49:16.191Z,50.03
2023-01-19T01:51:53.108Z,43.08
2023-01-19T01:54:30.011Z,47.38
2023-01-19T01:57:12.271Z,44.92
2023-01-19T01:59:48.653Z,42.38
2023-01-19T02:02:50.484Z,48.30
2023-01-19T02:05:35.945Z,33.30
2023-01-19T02:08:39.504Z,43.03
2023-01-19T02:11:30.900Z,47.33
2023-01-19T02:14:07.114Z,49.35
2023-01-19T02:16:39.678Z,43.33
2023-01-19T02:19:17.816Z,41.92
2023-01-19T02:21:55.544Z,44.08
2023-01-19T02:24:29.374Z,46.42
2023-01-19T02:27:02.211Z,44.60
2023-01-19T02:29:35.629Z,42.78
2023-01-19T02:32:08.500Z,42.08
2023-01-19T02:34:41.289Z,39.25
2023-01-19T02:37:17.054Z,38.67
2023-01-19T02:39:53.180Z,44.60
2023-01-19T02:42:36.435Z,42.28
2023-01-19T02:45:12.806Z,42.90
2023-01-19T02:47:47.923Z,48.00
2023-01-19T02:50:36.206Z,43.42
2023-01-19T02:53:23.763Z,46.35
2023-01-19T02:56:11.476Z,43.10
2023-01-19T02:59:08.666Z,46.03
2023-01-19T03:01:51.787Z,43.60
2023-01-19T03:04:37.563Z,48.10
2023-01-19T03:07:39.749Z,47.72
2023-01-19T03:10:42.713Z,50.40
2023-01-19T03:13:22.825Z,47.13
2023-01-19T03:16:22.782Z,49.33
2023-01-19T03:19:31.149Z,55.17
2023-01-19T03:22:20.786Z,47.38
2023-01-19T03:24:58.594Z,49.40
2023-01-19T03:27:41.262Z,54.97
2023-01-19T03:30:20.105Z,47.53
2023-01-19T03:32:56.771Z,55.33
2023-01-19T03:35:32.359Z,54.20
2023-01-19T03:38:10.060Z,50.38
2023-01-19T03:40:43.845Z,45.28
2023-01-19T03:43:17.422Z,45.20
2023-01-19T03:45:51.267Z,44.65
2023-01-19T03:48:24.568Z,47.38
2023-01-19T03:50:57.617Z,45.33
2023-01-19T03:53:30.116Z,60.47
2023-01-19T03:56:03.721Z,49.00
2023-01-19T03:58:36.281Z,52.65
2023-01-19T04:01:09.255Z,56.33
2023-01-19T04:03:42.451Z,51.55
2023-01-19T04:06:15.532Z,52.25
2023-01-19T04:08:49.767Z,59.25
2023-01-19T04:11:22.580Z,54.90
2023-01-19T04:13:55.061Z,46.08
2023-01-19T04:16:28.513Z,55.53
2023-01-19T04:19:01.028Z,47.83
2023-01-19T04:21:33.774Z,55.45
2023-01-19T04:24:07.001Z,49.35
2023-01-19T04:26:39.772Z,54.15
2023-01-19T04:29:14.093Z,48.83
2023-01-19T04:31:46.853Z,47.33
2023-01-19T04:34:19.334Z,53.65
2023-01-19T04:36:52.397Z,54.72
2023-01-19T04:39:24.907Z,63.65
2023-01-19T04:41:57.782Z,52.13
2023-01-19T04:44:30.287Z,59.35
2023-01-19T04:47:03.476Z,60.25
2023-01-19T04:49:38.611Z,53.70
2023-01-19T04:52:11.744Z,56.90
2023-01-19T04:54:44.238Z,55.72
2023-01-19T04:57:17.044Z,56.20
2023-01-19T04:59:49.557Z,59.63
2023-01-19T05:02:22.817Z,59.05
2023-01-19T05:04:55.363Z,51.88
2023-01-19T05:07:28.305Z,51.33
2023-01-19T05:10:00.901Z,46.53
2023-01-19T05:12:34.127Z,49.13
2023-01-19T05:15:07.947Z,53.28
2023-01-19T05:17:40.794Z,54.90
2023-01-19T05:20:16.209Z,47.92
2023-01-19T05:22:50.851Z,52.10
2023-01-19T05:25:23.466Z,46.50
2023-01-19T05:27:56.365Z,46.90
2023-01-19T05:30:28.985Z,47.97
2023-01-19T05:33:02.073Z,52.40
2023-01-19T05:35:36.594Z,56.38
2023-01-19T05:38:09.467Z,56.17
2023-01-19T05:40:41.951Z,65.53
2023-01-19T05:43:15.204Z,58.40
2023-01-19T05:45:47.679Z,62.95
2023-01-19T05:48:20.499Z,64.35
2023-01-19T05:50:58.123Z,65.90
2023-01-19T05:53:31.520Z,55.47
2023-01-19T05:56:08.583Z,61.00
2023-01-19T05:58:41.671Z,66.05
2023-01-19T06:01:14.223Z,61.65
2023-01-19T06:03:47.395Z,59.03
2023-01-19T06:06:19.897Z,58.40
2023-01-19T06:08:52.683Z,61.67
2023-01-19T06:11:26.166Z,61.70
2023-01-19T06:13:58.961Z,64.30
2023-01-19T06:16:31.676Z,67.22
2023-01-19T06:19:04.667Z,65.60
2023-01-19T06:21:37.164Z,67.30
2023-01-19T06:24:10.074Z,66.93
2023-01-19T06:26:45.446Z,69.28
2023-01-19T06:29:18.483Z,72.38
2023-01-19T06:31:51.044Z,59.50
2023-01-19T06:34:28.635Z,61.45
2023-01-19T06:37:01.132Z,56.88
2023-01-19T06:39:33.898Z,66.63
2023-01-19T06:42:06.978Z,66.72
2023-01-19T06:44:43.413Z,60.58
2023-01-19T06:47:16.706Z,55.92
2023-01-19T06:49:49.643Z,61.55
2023-01-19T06:52:22.559Z,57.38
2023-01-19T06:54:55.677Z,65.00
2023-01-19T06:57:29.314Z,62.20
2023-01-19T07:00:05.344Z,66.40
2023-01-19T07:02:44.188Z,65.82
2023-01-19T07:05:17.413Z,70.80
2023-01-19T07:07:54.542Z,60.80
2023-01-19T07:10:27.683Z,68.93
2023-01-19T07:13:21.718Z,73.00
2023-01-19T07:15:54.675Z,66.00
2023-01-19T07:18:27.400Z,69.13
2023-01-19T07:21:01.233Z,72.22
2023-01-19T07:23:34.088Z,70.35
2023-01-19T07:26:07.056Z,77.00
2023-01-19T07:28:39.563Z,82.20
2023-01-19T07:31:15.216Z,65.82
2023-01-19T07:33:47.808Z,75.40
2023-01-19T07:36:20.567Z,68.75
2023-01-19T07:38:53.108Z,77.28
2023-01-19T07:41:25.957Z,73.47
2023-01-19T07:43:58.450Z,73.00
2023-01-19T07:46:31.278Z,79.45
2023-01-19T07:49:03.833Z,72.43
2023-01-19T07:51:36.744Z,73.60
2023-01-19T07:54:09.443Z,72.40
2023-01-19T07:56:42.207Z,78.90
2023-01-19T07:59:14.744Z,71.47
2023-01-19T08:01:47.824Z,74.05
2023-01-19T08:04:20.701Z,69.47
2023-01-19T08:06:54.107Z,82.28
2023-01-19T08:09:26.639Z,75.47
2023-01-19T08:11:59.474Z,88.15
2023-01-19T08:14:32.003Z,78.57
2023-01-19T08:17:04.810Z,80.22
2023-01-19T08:19:38.180Z,68.63
2023-01-19T08:22:12.284Z,80.25
2023-01-19T08:24:44.764Z,80.18
2023-01-19T08:27:17.556Z,74.20
2023-01-19T08:29:50.150Z,75.32
2023-01-19T08:32:23.090Z,77.55
2023-01-19T08:34:56.105Z,80.32
2023-01-19T08:37:28.945Z,74.55
2023-01-19T08:40:01.462Z,81.65
2023-01-19T08:42:34.325Z,76.93
2023-01-19T08:45:07.899Z,81.32
2023-01-19T08:47:40.760Z,73.07
2023-01-19T08:50:13.729Z,79.32
2023-01-19T08:52:49.255Z,73.53
2023-01-19T08:55:21.797Z,82.88
2023-01-19T08:57:57.116Z,76.90
2023-01-19T09:00:31.619Z,70.45
2023-01-19T09:03:06.599Z,72.97
2023-01-19T09:05:39.676Z,74.65
2023-01-19T09:08:14.138Z,87.97
2023-01-19T09:10:49.417Z,71.85
2023-01-19T09:13:22.599Z,77.05
2023-01-19T09:15:55.361Z,71.47
2023-01-19T09:18:28.206Z,89.50
2023-01-19T09:21:01.610Z,78.57
2023-01-19T09:23:34.586Z,82.97
2023-01-19T09:26:07.461Z,75.88
2023-01-19T09:28:40.346Z,77.22
2023-01-19T09:31:13.151Z,89.60
2023-01-19T09:33:46.022Z,78.53
2023-01-19T09:36:18.608Z,76.43
2023-01-19T09:38:51.990Z,82.25
2023-01-19T09:41:26.354Z,89.90
2023-01-19T09:44:00.592Z,82.35
2023-01-19T09:46:39.101Z,83.30
2023-01-19T09:49:28.640Z,94.68
2023-01-19T09:52:01.223Z,83.93
2023-01-19T09:54:44.445Z,83.50
2023-01-19T09:57:17.044Z,86.80
2023-01-19T09:59:51.471Z,84.60
2023-01-19T10:02:33.964Z,86.65
2023-01-19T10:05:28.382Z,85.78
2023-01-19T10:08:15.558Z,82.97
2023-01-19T10:10:58.318Z,87.25
2023-01-19T10:13:34.216Z,90.68
2023-01-19T10:16:41.334Z,98.75
2023-01-19T10:19:40.431Z,91.88
2023-01-19T10:22:25.423Z,92.10
2023-01-19T10:25:08.248Z,112.45
2023-01-19T10:27:41.712Z,107.38
2023-01-19T10:30:32.321Z,115.68
2023-01-19T10:33:05.150Z,102.15
2023-01-19T10:35:37.765Z,105.22
2023-01-19T10:38:15.005Z,96.00
2023-01-19T10:41:10.215Z,99.45
2023-01-19T10:43:47.959Z,99.32
2023-01-19T10:46:30.106Z,107.20
2023-01-19T10:49:03.349Z,109.60
2023-01-19T10:51:47.747Z,123.20
2023-01-19T10:54:22.195Z,128.55
2023-01-19T10:56:58.072Z,113.80
2023-01-19T10:59:44.123Z,127.25
2023-01-19T11:02:21.074Z,127.10
2023-01-19T11:05:00.665Z,111.60
2023-01-19T11:07:34.980Z,121.80
2023-01-19T11:10:13.701Z,118.93
2023-01-19T11:13:02.207Z,122.93
2023-01-19T11:15:50.687Z,117.70
2023-01-19T11:18:35.904Z,122.45
2023-01-19T11:21:14.322Z,131.77
2023-01-19T11:23:51.061Z,125.57
2023-01-19T11:26:39.526Z,116.93
2023-01-19T11:29:19.354Z,117.15
2023-01-19T11:31:53.391Z,115.00
2023-01-19T11:34:30.794Z,116.97
2023-01-19T11:37:27.393Z,108.07
2023-01-19T11:40:02.683Z,101.25
2023-01-19T11:42:37.327Z,98.85
2023-01-19T11:45:16.711Z,94.97
2023-01-19T11:47:50.389Z,97.50
2023-01-19T11:50:34.924Z,95.30
2023-01-19T11:53:19.034Z,95.57
2023-01-19T11:55:59.735Z,100.85
2023-01-19T11:58:37.241Z,99.57
2023-01-19T12:01:29.904Z,76.40
2023-01-19T12:04:17.727Z,90.78
2023-01-19T12:06:54.422Z,84.63
2023-01-19T12:09:39.152Z,84.80
2023-01-19T12:12:30.623Z,78.18
2023-01-19T12:15:29.711Z,78.43
2023-01-19T12:18:05.385Z,75.40
2023-01-19T12:20:45.815Z,83.10
2023-01-19T12:23:23.959Z,85.30
2023-01-19T12:26:27.974Z,90.32
2023-01-19T12:29:06.992Z,80.50
2023-01-19T12:31:43.002Z,78.97
2023-01-19T12:34:31.454Z,88.85
2023-01-19T12:37:06.952Z,91.53
2023-01-19T12:39:48.996Z,89.55
2023-01-19T12:42:22.738Z,104.15
2023-01-19T12:45:17.002Z,73.25
2023-01-19T12:47:56.002Z,76.80
2023-01-19T12:50:34.042Z,70.88
2023-01-19T12:53:18.959Z,63.40
2023-01-19T12:56:06.106Z,70.38
2023-01-19T12:58:39.046Z,59.47
2023-01-19T13:01:21.194Z,66.55
2023-01-19T13:04:27.101Z,67.38
2023-01-19T13:07:05.807Z,61.38
2023-01-19T13:09:39.484Z,72.65
2023-01-19T13:12:11.979Z,60.20
2023-01-19T13:14:44.848Z,70.93
2023-01-19T13:17:29.799Z,58.63
2023-01-19T13:20:23.118Z,76.45
2023-01-19T13:23:23.387Z,74.35
2023-01-19T13:26:04.786Z,75.78
2023-01-19T13:28:44.970Z,73.00
2023-01-19T13:31:18.670Z,89.07
2023-01-19T13:33:53.228Z,87.70
2023-01-19T13:36:37.889Z,96.03
2023-01-19T13:39:22.057Z,92.93
2023-01-19T13:42:00.125Z,102.20
2023-01-19T13:44:39.274Z,94.88
2023-01-19T13:47:22.440Z,83.83
2023-01-19T13:49:59.062Z,92.00
2023-01-19T13:52:32.078Z,93.63
2023-01-19T13:55:05.520Z,74.00
2023-01-19T13:57:45.845Z,90.65
2023-01-19T14:00:21.568Z,117.88
2023-01-19T14:03:04.987Z,98.80
2023-01-19T14:05:40.089Z,96.90
2023-01-19T14:08:15.367Z,105.68
2023-01-19T14:10:53.924Z,95.45
2023-01-19T14:13:30.977Z,96.47
2023-01-19T14:16:13.512Z,109.15
2023-01-19T14:18:46.882Z,86.60
2023-01-19T14:21:19.493Z,92.55
2023-01-19T14:24:29.731Z,85.88
2023-01-19T14:27:24.352Z,98.95
2023-01-19T14:30:22.476Z,92.75
2023-01-19T14:32:55.615Z,104.07
2023-01-19T14:35:30.147Z,95.20
2023-01-19T14:38:02.781Z,103.57
2023-01-19T14:40:38.311Z,103.53
2023-01-19T14:43:13.264Z,89.93
2023-01-19T14:45:47.849Z,101.95
2023-01-19T14:48:24.002Z,97.97
2023-01-19T14:51:05.308Z,95.32
2023-01-19T14:53:38.464Z,91.75
2023-01-19T14:56:11.623Z,94.80
2023-01-19T14:58:44.138Z,104.85
2023-01-19T15:01:17.252Z,89.75
2023-01-19T15:03:50.150Z,98.90
2023-01-19T15:06:24.558Z,97.32
2023-01-19T15:08:57.693Z,79.53
2023-01-19T15:11:35.014Z,91.20
2023-01-19T15:14:11.518Z,72.95
2023-01-19T15:16:45.278Z,70.75
2023-01-19T15:19:17.993Z,87.15
2023-01-19T15:21:53.083Z,103.82
2023-01-19T15:24:28.647Z,87.22
2023-01-19T15:27:02.657Z,97.30
2023-01-19T15:29:35.236Z,99.57
2023-01-19T15:32:15.211Z,101.20
2023-01-19T15:34:47.920Z,102.80
2023-01-19T15:37:25.150Z,106.25
2023-01-19T15:39:57.647Z,109.88
2023-01-19T15:42:30.486Z,92.20
2023-01-19T15:45:03.361Z,116.70
2023-01-19T15:47:36.443Z,111.28
2023-01-19T15:50:09.764Z,111.78
2023-01-19T15:52:43.828Z,110.53
2023-01-19T15:55:16.425Z,106.43
2023-01-19T15:57:49.251Z,129.15
2023-01-19T16:00:21.887Z,111.88
2023-01-19T16:02:54.814Z,99.90
2023-01-19T16:05:41.573Z,107.05
2023-01-19T16:08:15.983Z,126.97
2023-01-19T16:10:48.711Z,130.07
2023-01-19T16:13:21.745Z,115.38
2023-01-19T16:15:54.288Z,127.18
2023-01-19T16:18:27.363Z,123.10
2023-01-19T16:21:00.666Z,123.03
2023-01-19T16:23:33.658Z,117.10
2023-01-19T16:26:09.013Z,111.50
2023-01-19T16:28:42.027Z,124.50
2023-01-19T16:31:16.654Z,121.70
2023-01-19T16:33:49.685Z,117.88
2023-01-19T16:36:28.244Z,106.88
2023-01-19T16:39:04.104Z,122.70
2023-01-19T16:41:36.829Z,109.00
2023-01-19T16:44:12.243Z,105.50
2023-01-19T16:46:46.827Z,104.97
2023-01-19T16:49:21.747Z,100.38
2023-01-19T16:51:54.977Z,116.97
2023-01-19T16:54:28.533Z,131.23
2023-01-19T16:57:01.315Z,113.30
2023-01-19T16:59:34.427Z,128.60
2023-01-19T17:02:11.524Z,118.53
2023-01-19T17:04:47.099Z,110.82
2023-01-19T17:07:29.939Z,117.45
2023-01-19T17:10:03.664Z,111.80
2023-01-19T17:12:36.208Z,124.22
2023-01-19T17:15:09.532Z,137.40
2023-01-19T17:17:42.043Z,118.82
2023-01-19T17:20:15.360Z,122.47
2023-01-19T17:22:47.941Z,128.65
2023-01-19T17:25:20.808Z,120.53
2023-01-19T17:27:53.299Z,116.10
2023-01-19T17:30:26.179Z,141.68
2023-01-19T17:32:58.808Z,129.38
2023-01-19T17:35:34.486Z,99.40
2023-01-19T17:38:07.303Z,121.10
2023-01-19T17:40:40.525Z,118.70
2023-01-19T17:43:13.027Z,131.05
2023-01-19T17:45:45.916Z,126.72
2023-01-19T17:48:20.050Z,128.05
2023-01-19T17:50:54.200Z,130.77
2023-01-19T17:53:26.736Z,134.50
2023-01-19T17:56:05.540Z,130.82
2023-01-19T17:58:47.420Z,125.90
2023-01-19T18:01:28.655Z,121.10
2023-01-19T18:04:02.637Z,126.88
2023-01-19T18:06:35.978Z,127.38
2023-01-19T18:09:09.128Z,112.68
2023-01-19T18:11:43.025Z,118.30
2023-01-19T18:14:15.516Z,122.50
2023-01-19T18:16:48.307Z,136.00
2023-01-19T18:19:22.470Z,118.18
2023-01-19T18:21:55.645Z,129.05
2023-01-19T18:24:28.222Z,117.40
2023-01-19T18:27:01.544Z,123.18
2023-01-19T18:29:34.107Z,127.15
2023-01-19T18:32:06.917Z,125.35
2023-01-19T18:34:39.631Z,135.00
2023-01-19T18:37:12.567Z,142.73
2023-01-19T18:39:45.145Z,120.20
2023-01-19T18:42:18.114Z,99.95
2023-01-19T18:44:50.681Z,109.97
2023-01-19T18:47:23.536Z,111.70
2023-01-19T18:49:56.069Z,110.25
2023-01-19T18:52:29.267Z,104.65
2023-01-19T18:55:01.892Z,108.32
2023-01-19T18:57:37.436Z,121.30
2023-01-19T19:00:11.037Z,104.65
2023-01-19T19:02:44.142Z,107.90
2023-01-19T19:05:16.804Z,119.18
2023-01-19T19:07:49.672Z,105.22
2023-01-19T19:10:22.187Z,126.60
2023-01-19T19:12:55.202Z,128.23
2023-01-19T19:15:32.385Z,135.60
2023-01-19T19:18:05.450Z,139.45
2023-01-19T19:20:40.327Z,128.18
2023-01-19T19:23:13.416Z,140.98
2023-01-19T19:25:45.998Z,125.78
2023-01-19T19:28:20.987Z,112.30
2023-01-19T19:31:12.851Z,108.72
2023-01-19T19:33:45.949Z,136.85
2023-01-19T19:36:20.158Z,67.13
2023-01-19T19:38:53.380Z,80.13
2023-01-19T19:41:27.772Z,77.53
2023-01-19T19:44:01.567Z,103.18
2023-01-19T19:46:34.111Z,109.25
2023-01-19T19:49:07.378Z,105.05
2023-01-19T19:51:39.919Z,101.60
2023-01-19T19:54:12.752Z,70.88
2023-01-19T19:56:46.038Z,39.55
2023-01-19T19:59:18.871Z,44.88
2023-01-19T20:01:53.816Z,87.78
2023-01-19T20:04:26.635Z,119.05
2023-01-19T20:07:00.185Z,89.30
2023-01-19T20:09:33.057Z,95.80
2023-01-19T20:12:05.950Z,89.05
2023-01-19T20:14:38.761Z,94.00
2023-01-19T20:17:11.265Z,105.97
2023-01-19T20:19:45.680Z,100.53
2023-01-19T20:22:18.197Z,79.47
2023-01-19T20:24:54.697Z,103.53
2023-01-19T20:27:27.216Z,100.90
2023-01-19T20:30:00.543Z,93.28
2023-01-19T20:32:33.832Z,81.63
2023-01-19T20:35:06.866Z,88.05
2023-01-19T20:40:53.817Z,89.80
2023-01-19T20:43:26.331Z,94.30
2023-01-19T20:45:59.167Z,88.15
2023-01-19T20:48:32.071Z,71.60
2023-01-19T20:51:09.723Z,98.30
2023-01-19T20:53:43.527Z,94.55
2023-01-19T20:56:17.069Z,97.05
2023-01-19T20:58:55.270Z,80.88
2023-01-19T21:01:31.604Z,99.43
2023-01-19T21:04:05.722Z,88.80
2023-01-19T21:06:42.321Z,113.63
2023-01-19T21:09:15.029Z,87.30
2023-01-19T21:11:47.816Z,97.43
2023-01-19T21:14:20.381Z,92.05
2023-01-19T21:16:56.345Z,95.80
2023-01-19T21:19:29.002Z,97.07
2023-01-19T21:22:04.763Z,77.15
2023-01-19T21:24:37.303Z,78.18
2023-01-19T21:27:10.112Z,68.88
2023-01-19T21:29:42.708Z,77.35
2023-01-19T21:32:15.586Z,51.90
2023-01-19T21:34:48.159Z,49.67
2023-01-19T21:37:21.376Z,78.78
2023-01-19T21:39:53.866Z,75.90
2023-01-19T21:42:26.660Z,75.07
2023-01-19T21:44:59.204Z,76.05
2023-01-19T21:47:34.222Z,75.57
2023-01-19T21:50:06.887Z,84.72
2023-01-19T21:52:40.156Z,74.03
2023-01-19T21:55:12.901Z,80.57
2023-01-19T21:57:46.196Z,62.53
2023-01-19T22:00:19.126Z,69.22
2023-01-19T22:03:03.188Z,77.25
2023-01-19T22:05:37.253Z,40.15
2023-01-19T22:08:10.131Z,36.88
2023-01-19T22:10:42.645Z,44.70
2023-01-19T22:13:15.436Z,46.17
2023-01-19T22:15:47.962Z,26.40
2023-01-19T22:18:20.922Z,53.58
2023-01-19T22:20:53.425Z,40.53
2023-01-19T22:23:26.206Z,31.90
2023-01-19T22:25:59.942Z,47.67
2023-01-19T22:28:33.177Z,59.42
2023-01-19T22:31:11.625Z,53.92
2023-01-19T22:33:45.127Z,44.13
2023-01-19T22:36:20.577Z,17.42
2023-01-19T22:39:01.612Z,39.80
2023-01-19T22:41:40.761Z,37.38
2023-01-19T22:44:20.841Z,27.70
2023-01-19T22:46:56.000Z,28.75
2023-01-19T22:49:29.148Z,37.42
2023-01-19T22:52:02.206Z,29.52
2023-01-19T22:54:35.362Z,26.98
2023-01-19T22:57:11.341Z,33.97
2023-01-19T22:59:46.403Z,29.70
2023-01-19T23:02:20.784Z,27.17
2023-01-19T23:04:53.897Z,31.40
2023-01-19T23:07:26.441Z,36.63
2023-01-19T23:09:59.287Z,19.95
2023-01-19T23:12:34.923Z,33.45
2023-01-19T23:15:08.384Z,31.58
2023-01-19T23:17:43.539Z,30.00
2023-01-19T23:20:16.631Z,28.63
2023-01-19T23:22:49.111Z,26.60
2023-01-19T23:25:21.911Z,30.80
2023-01-19T23:27:54.755Z,23.67
2023-01-19T23:30:27.557Z,30.80
2023-01-19T23:33:00.219Z,20.38
2023-01-19T23:35:35.331Z,24.25
2023-01-19T23:38:07.961Z,28.13
2023-01-19T23:40:40.798Z,33.22
2023-01-19T23:43:13.327Z,25.60
2023-01-19T23:45:46.164Z,36.50
2023-01-19T23:48:18.650Z,11.10
2023-01-19T23:50:51.450Z,29.95
2023-01-19T23:53:24.130Z,34.58
2023-01-19T23:55:56.896Z,27.45
2023-01-19T23:58:29.508Z,29.38
